createdAt,value
2019-05-30T00:00:50.208Z,101240.00
2019-05-30T00:03:18.110Z,101251.00
2019-05-30T00:05:46.199Z,101243.00
2019-05-30T00:08:14.210Z,101248.00
2019-05-30T00:10:42.120Z,101253.00
2019-05-30T00:13:10.061Z,101248.00
2019-05-30T00:15:37.981Z,101248.00
2019-05-30T00:18:05.886Z,101244.00
2019-05-30T00:20:33.769Z,101247.00
2019-05-30T00:23:01.708Z,101245.00
2019-05-30T00:25:30.634Z,101247.00
2019-05-30T00:27:59.161Z,101251.00
2019-05-30T00:30:27.177Z,101237.00
2019-05-30T00:32:56.641Z,101238.00
2019-05-30T00:35:24.868Z,101242.00
2019-05-30T00:37:53.844Z,101236.00
2019-05-30T00:40:21.843Z,101242.00
2019-05-30T00:42:49.925Z,101241.00
2019-05-30T00:45:21.211Z,101247.00
2019-05-30T00:47:48.020Z,101248.00
2019-05-30T00:50:15.951Z,101246.00
2019-05-30T00:52:43.998Z,101244.00
2019-05-30T00:55:13.020Z,101240.00
2019-05-30T00:57:40.960Z,101246.00
2019-05-30T01:00:12.101Z,101249.00
2019-05-30T01:02:40.116Z,101246.00
2019-05-30T01:05:08.288Z,101250.00
2019-05-30T01:07:36.503Z,101248.00
2019-05-30T01:10:05.257Z,101248.00
2019-05-30T01:12:33.266Z,101242.00
2019-05-30T01:15:01.215Z,101238.00
2019-05-30T01:17:29.179Z,101245.00
2019-05-30T01:19:57.137Z,101247.00
2019-05-30T01:22:25.006Z,101244.00
2019-05-30T01:24:53.677Z,101243.00
2019-05-30T01:27:21.606Z,101244.00
2019-05-30T01:29:50.055Z,101238.00
2019-05-30T01:32:26.688Z,101243.00
2019-05-30T01:34:54.670Z,101243.00
2019-05-30T01:37:22.558Z,101233.00
2019-05-30T01:39:50.521Z,101220.00
2019-05-30T01:42:18.452Z,101235.00
2019-05-30T01:44:46.399Z,101236.00
2019-05-30T01:47:14.323Z,101230.00
2019-05-30T01:49:42.302Z,101231.00
2019-05-30T01:52:10.161Z,101230.00
2019-05-30T01:54:38.288Z,101235.00
2019-05-30T01:57:06.793Z,101234.00
2019-05-30T01:59:34.750Z,101236.00
2019-05-30T02:02:03.001Z,101227.00
2019-05-30T02:04:31.029Z,101222.00
2019-05-30T02:06:59.270Z,101218.00
2019-05-30T02:09:27.296Z,101223.00
2019-05-30T02:11:56.105Z,101218.00
2019-05-30T02:14:24.017Z,101222.00
2019-05-30T02:16:51.907Z,101226.00
2019-05-30T02:19:20.074Z,101215.00
2019-05-30T02:21:48.024Z,101213.00
2019-05-30T02:24:16.012Z,101220.00
2019-05-30T02:26:43.891Z,101224.00
2019-05-30T02:29:11.818Z,101229.00
2019-05-30T02:31:40.492Z,101230.00
2019-05-30T02:34:11.399Z,101234.00
2019-05-30T02:36:38.226Z,101233.00
2019-05-30T02:39:07.605Z,101230.00
2019-05-30T02:41:37.013Z,101234.00
2019-05-30T02:44:05.526Z,101232.00
2019-05-30T02:46:34.015Z,101228.00
2019-05-30T02:49:04.477Z,101234.00
2019-05-30T02:51:32.074Z,101238.00
2019-05-30T02:54:01.563Z,101239.00
2019-05-30T02:56:30.644Z,101233.00
2019-05-30T02:58:58.546Z,101236.00
2019-05-30T03:01:26.420Z,101233.00
2019-05-30T03:03:54.385Z,101250.00
2019-05-30T03:06:22.467Z,101243.00
2019-05-30T03:08:50.342Z,101242.00
2019-05-30T03:11:18.675Z,101251.00
2019-05-30T03:13:46.658Z,101259.00
2019-05-30T03:16:14.730Z,101244.00
2019-05-30T03:18:43.405Z,101251.00
2019-05-30T03:21:14.808Z,101249.00
2019-05-30T03:23:41.322Z,101249.00
2019-05-30T03:26:10.731Z,101253.00
2019-05-30T03:28:39.328Z,101256.00
2019-05-30T03:31:14.057Z,101250.00
2019-05-30T03:33:41.992Z,101260.00
2019-05-30T03:36:18.008Z,101261.00
2019-05-30T03:38:37.399Z,101275.00
2019-05-30T03:41:07.539Z,101263.00
2019-05-30T03:43:36.018Z,101259.00
2019-05-30T03:46:10.593Z,101265.00
2019-05-30T03:48:40.999Z,101271.00
2019-05-30T03:51:13.503Z,101272.00
2019-05-30T03:53:41.168Z,101287.00
2019-05-30T03:56:15.963Z,101264.00
2019-05-30T03:59:03.077Z,101267.00
2019-05-30T04:01:47.949Z,101272.00
2019-05-30T04:04:23.373Z,101266.00
2019-05-30T04:06:59.622Z,101266.00
2019-05-30T04:09:28.972Z,101268.00
2019-05-30T04:12:14.220Z,101273.00
2019-05-30T04:14:46.670Z,101275.00
2019-05-30T04:17:16.013Z,101275.00
2019-05-30T04:19:44.382Z,101273.00
2019-05-30T04:22:13.546Z,101281.00
2019-05-30T04:24:41.435Z,101279.00
2019-05-30T04:27:09.958Z,101279.00
2019-05-30T04:29:38.390Z,101279.00
2019-05-30T04:32:08.274Z,101277.00
2019-05-30T04:34:36.051Z,101280.00
2019-05-30T04:37:03.936Z,101284.00
2019-05-30T04:39:31.831Z,101286.00
2019-05-30T04:41:59.858Z,101289.00
2019-05-30T04:44:27.751Z,101286.00
2019-05-30T04:46:56.851Z,101288.00
2019-05-30T04:49:24.707Z,101283.00
2019-05-30T04:51:52.679Z,101285.00
2019-05-30T04:54:21.406Z,101281.00
2019-05-30T04:56:49.635Z,101293.00
2019-05-30T04:59:19.819Z,101291.00
2019-05-30T05:01:47.469Z,101280.00
2019-05-30T05:04:15.633Z,101283.00
2019-05-30T05:06:43.849Z,101277.00
2019-05-30T05:09:12.019Z,101287.00
2019-05-30T05:11:40.175Z,101288.00
2019-05-30T05:14:08.025Z,101293.00
2019-05-30T05:16:36.604Z,101288.00
2019-05-30T05:19:08.808Z,101289.00
2019-05-30T05:21:36.695Z,101292.00
2019-05-30T05:24:04.591Z,101293.00
2019-05-30T05:26:32.548Z,101296.00
2019-05-30T05:29:00.619Z,101290.00
2019-05-30T05:31:28.610Z,101300.00
2019-05-30T05:33:57.487Z,101295.00
2019-05-30T05:36:25.496Z,101296.00
2019-05-30T05:38:55.242Z,101302.00
2019-05-30T05:41:24.292Z,101304.00
2019-05-30T05:43:52.460Z,101308.00
2019-05-30T05:46:20.917Z,101306.00
2019-05-30T05:48:48.789Z,101312.00
2019-05-30T05:51:18.769Z,101305.00
2019-05-30T05:53:46.684Z,101306.00
2019-05-30T05:56:14.807Z,101302.00
2019-05-30T05:58:42.735Z,101308.00
2019-05-30T06:01:10.643Z,101313.00
2019-05-30T06:03:39.718Z,101310.00
2019-05-30T06:06:07.559Z,101311.00
2019-05-30T06:08:35.628Z,101313.00
2019-05-30T06:11:03.488Z,101316.00
2019-05-30T06:13:31.544Z,101317.00
2019-05-30T06:15:59.470Z,101318.00
2019-05-30T06:18:28.429Z,101312.00
2019-05-30T06:20:56.958Z,101321.00
2019-05-30T06:23:26.015Z,101316.00
2019-05-30T06:25:54.009Z,101318.00
2019-05-30T06:28:22.074Z,101312.00
2019-05-30T06:30:50.086Z,101313.00
2019-05-30T06:33:18.581Z,101317.00
2019-05-30T06:35:46.965Z,101319.00
2019-05-30T06:38:15.169Z,101319.00
2019-05-30T06:40:43.656Z,101325.00
2019-05-30T06:43:11.885Z,101325.00
2019-05-30T06:45:39.812Z,101322.00
2019-05-30T06:48:07.782Z,101318.00
2019-05-30T06:50:35.709Z,101320.00
2019-05-30T06:53:03.621Z,101325.00
2019-05-30T06:55:31.609Z,101324.00
2019-05-30T06:57:59.799Z,101328.00
2019-05-30T07:00:28.190Z,101332.00
2019-05-30T07:02:56.105Z,101331.00
2019-05-30T07:05:26.227Z,101335.00
2019-05-30T07:07:54.325Z,101323.00
2019-05-30T07:10:22.815Z,101322.00
2019-05-30T07:12:51.140Z,101328.00
2019-05-30T07:15:19.208Z,101331.00
2019-05-30T07:17:47.191Z,101327.00
2019-05-30T07:20:15.855Z,101323.00
2019-05-30T07:22:43.750Z,101328.00
2019-05-30T07:25:12.107Z,101335.00
2019-05-30T07:27:40.673Z,101327.00
2019-05-30T07:30:09.112Z,101333.00
2019-05-30T07:32:37.064Z,101332.00
2019-05-30T07:35:07.134Z,101341.00
2019-05-30T07:37:36.665Z,101337.00
2019-05-30T07:40:05.509Z,101338.00
2019-05-30T07:42:34.802Z,101332.00
2019-05-30T07:45:03.884Z,101331.00
2019-05-30T07:47:32.211Z,101334.00
2019-05-30T07:50:05.349Z,101331.00
2019-05-30T07:52:34.790Z,101337.00
2019-05-30T07:55:03.174Z,101339.00
2019-05-30T07:57:32.843Z,101334.00
2019-05-30T08:00:01.019Z,101331.00
2019-05-30T08:02:29.583Z,101334.00
2019-05-30T08:04:57.715Z,101335.00
2019-05-30T08:07:26.553Z,101330.00
2019-05-30T08:09:54.682Z,101318.00
2019-05-30T08:12:22.922Z,101325.00
2019-05-30T08:14:50.879Z,101318.00
2019-05-30T08:17:18.804Z,101315.00
2019-05-30T08:19:46.733Z,101312.00
2019-05-30T08:22:14.672Z,101317.00
2019-05-30T08:24:42.661Z,101319.00
2019-05-30T08:27:10.442Z,101319.00
2019-05-30T08:29:38.610Z,101310.00
2019-05-30T08:32:06.605Z,101304.00
2019-05-30T08:34:36.599Z,101311.00
2019-05-30T08:37:04.710Z,101313.00
2019-05-30T08:39:33.848Z,101317.00
2019-05-30T08:42:01.753Z,101314.00
2019-05-30T08:44:29.631Z,101306.00
2019-05-30T08:46:57.446Z,101307.00
2019-05-30T08:49:25.316Z,101299.00
2019-05-30T08:51:53.197Z,101301.00
2019-05-30T08:54:21.126Z,101298.00
2019-05-30T08:56:48.973Z,101308.00
2019-05-30T08:59:16.905Z,101307.00
2019-05-30T09:01:46.010Z,101307.00
2019-05-30T09:04:14.311Z,101296.00
2019-05-30T09:06:42.158Z,101308.00
2019-05-30T09:09:10.057Z,101300.00
2019-05-30T09:11:39.323Z,101299.00
2019-05-30T09:14:07.774Z,101301.00
2019-05-30T09:16:35.622Z,101299.00
2019-05-30T09:19:03.713Z,101296.00
2019-05-30T09:21:31.588Z,101292.00
2019-05-30T09:24:01.411Z,101301.00
2019-05-30T09:26:29.197Z,101305.00
2019-05-30T09:28:57.053Z,101302.00
2019-05-30T09:31:24.989Z,101300.00
2019-05-30T09:33:52.882Z,101297.00
2019-05-30T09:36:21.069Z,101299.00
2019-05-30T09:38:49.767Z,101298.00
2019-05-30T09:41:17.762Z,101293.00
2019-05-30T09:43:46.393Z,101306.00
2019-05-30T09:46:14.581Z,101305.00
2019-05-30T09:48:43.210Z,101306.00
2019-05-30T09:51:11.659Z,101310.00
2019-05-30T09:53:39.664Z,101305.00
2019-05-30T09:56:07.547Z,101313.00
2019-05-30T09:58:35.816Z,101318.00
2019-05-30T10:01:04.870Z,101313.00
2019-05-30T10:03:32.853Z,101317.00
2019-05-30T10:06:00.888Z,101305.00
2019-05-30T10:08:28.860Z,101301.00
2019-05-30T10:10:56.803Z,101306.00
2019-05-30T10:13:24.810Z,101303.00
2019-05-30T10:15:52.786Z,101300.00
2019-05-30T10:18:20.681Z,101301.00
2019-05-30T10:20:51.780Z,101302.00
2019-05-30T10:23:19.357Z,101301.00
2019-05-30T10:25:47.902Z,101295.00
2019-05-30T10:28:17.579Z,101295.00
2019-05-30T10:30:50.945Z,101297.00
2019-05-30T10:33:15.368Z,101297.00
2019-05-30T10:35:45.567Z,101294.00
2019-05-30T10:38:13.785Z,101295.00
2019-05-30T10:40:41.671Z,101294.00
2019-05-30T10:43:09.601Z,101289.00
2019-05-30T10:45:38.785Z,101294.00
2019-05-30T10:48:07.138Z,101294.00
2019-05-30T10:50:35.282Z,101298.00
2019-05-30T10:53:03.394Z,101292.00
2019-05-30T10:55:31.369Z,101288.00
2019-05-30T10:57:59.794Z,101285.00
2019-05-30T11:00:55.902Z,101291.00
2019-05-30T11:03:26.850Z,101271.00
2019-05-30T11:06:40.668Z,101280.00
2019-05-30T11:09:08.608Z,101277.00
2019-05-30T11:11:36.535Z,101272.00
2019-05-30T11:14:04.427Z,101275.00
2019-05-30T11:16:33.566Z,101268.00
2019-05-30T11:19:06.846Z,101265.00
2019-05-30T11:21:31.304Z,101261.00
2019-05-30T11:23:59.227Z,101263.00
2019-05-30T11:26:27.218Z,101266.00
2019-05-30T11:28:55.214Z,101267.00
2019-05-30T11:31:23.100Z,101264.00
2019-05-30T11:33:50.907Z,101269.00
2019-05-30T11:36:19.177Z,101271.00
2019-05-30T11:38:49.115Z,101274.00
2019-05-30T11:41:17.498Z,101278.00
2019-05-30T11:43:45.412Z,101278.00
2019-05-30T11:46:13.369Z,101277.00
2019-05-30T11:48:41.298Z,101269.00
2019-05-30T11:51:09.259Z,101265.00
2019-05-30T11:53:37.227Z,101268.00
2019-05-30T11:56:05.166Z,101267.00
2019-05-30T11:58:33.106Z,101267.00
2019-05-30T12:01:01.240Z,101260.00
2019-05-30T12:03:32.263Z,101264.00
2019-05-30T12:06:00.834Z,101266.00
2019-05-30T12:08:28.909Z,101261.00
2019-05-30T12:10:57.199Z,101262.00
2019-05-30T12:13:25.325Z,101260.00
2019-05-30T12:15:53.448Z,101258.00
2019-05-30T12:18:21.480Z,101269.00
2019-05-30T12:20:51.658Z,101264.00
2019-05-30T12:23:21.893Z,101261.00
2019-05-30T12:25:49.977Z,101266.00
2019-05-30T12:28:20.246Z,101269.00
2019-05-30T12:30:57.747Z,101272.00
2019-05-30T12:33:18.258Z,101275.00
2019-05-30T12:35:46.336Z,101268.00
2019-05-30T12:38:14.282Z,101273.00
2019-05-30T12:40:42.265Z,101265.00
2019-05-30T12:43:10.175Z,101260.00
2019-05-30T12:45:38.215Z,101265.00
2019-05-30T12:48:06.194Z,101263.00
2019-05-30T12:50:34.207Z,101263.00
2019-05-30T12:53:02.238Z,101264.00
2019-05-30T12:55:30.122Z,101271.00
2019-05-30T12:57:58.586Z,101272.00
2019-05-30T13:00:27.587Z,101274.00
2019-05-30T13:02:56.523Z,101273.00
2019-05-30T13:05:24.864Z,101266.00
2019-05-30T13:07:52.901Z,101272.00
2019-05-30T13:10:21.629Z,101269.00
2019-05-30T13:12:49.537Z,101261.00
2019-05-30T13:15:17.852Z,101266.00
2019-05-30T13:17:45.879Z,101274.00
2019-05-30T13:20:14.433Z,101268.00
2019-05-30T13:22:42.848Z,101256.00
2019-05-30T13:25:11.957Z,101267.00
2019-05-30T13:27:39.884Z,101263.00
2019-05-30T13:30:10.490Z,101256.00
2019-05-30T13:32:38.371Z,101272.00
2019-05-30T13:35:07.628Z,101272.00
2019-05-30T13:37:36.050Z,101264.00
2019-05-30T13:40:20.803Z,101267.00
2019-05-30T13:42:35.854Z,101268.00
2019-05-30T13:45:04.254Z,101274.00
2019-05-30T13:47:32.329Z,101283.00
2019-05-30T13:50:00.691Z,101272.00
2019-05-30T13:52:28.829Z,101272.00
2019-05-30T13:54:56.698Z,101272.00
2019-05-30T13:57:25.592Z,101268.00
2019-05-30T13:59:53.638Z,101272.00
2019-05-30T14:02:21.541Z,101275.00
2019-05-30T14:04:49.482Z,101259.00
2019-05-30T14:07:17.423Z,101266.00
2019-05-30T14:09:45.843Z,101270.00
2019-05-30T14:12:13.905Z,101270.00
2019-05-30T14:14:42.014Z,101256.00
2019-05-30T14:17:12.305Z,101266.00
2019-05-30T14:19:39.884Z,101265.00
2019-05-30T14:22:07.921Z,101258.00
2019-05-30T14:24:36.094Z,101264.00
2019-05-30T14:27:05.418Z,101272.00
2019-05-30T14:29:33.891Z,101264.00
2019-05-30T14:32:03.806Z,101246.00
2019-05-30T14:34:33.072Z,101252.00
2019-05-30T14:37:02.487Z,101259.00
2019-05-30T14:39:31.539Z,101263.00
2019-05-30T14:41:59.446Z,101271.00
2019-05-30T14:44:27.330Z,101266.00
2019-05-30T14:46:55.307Z,101257.00
2019-05-30T14:49:23.281Z,101254.00
2019-05-30T14:51:51.262Z,101258.00
2019-05-30T14:54:19.128Z,101259.00
2019-05-30T14:56:47.014Z,101265.00
2019-05-30T14:59:15.127Z,101269.00
2019-05-30T15:01:43.051Z,101267.00
2019-05-30T15:04:13.473Z,101270.00
2019-05-30T15:06:41.602Z,101263.00
2019-05-30T15:09:20.121Z,101267.00
2019-05-30T15:11:39.403Z,101269.00
2019-05-30T15:14:08.554Z,101260.00
2019-05-30T15:16:36.676Z,101265.00
2019-05-30T15:19:04.622Z,101245.00
2019-05-30T15:21:35.303Z,101250.00
2019-05-30T15:24:03.256Z,101255.00
2019-05-30T15:26:31.417Z,101256.00
2019-05-30T15:28:59.533Z,101257.00
2019-05-30T15:31:27.503Z,101257.00
2019-05-30T15:33:55.460Z,101263.00
2019-05-30T15:36:23.429Z,101259.00
2019-05-30T15:38:54.654Z,101266.00
2019-05-30T15:41:22.741Z,101267.00
2019-05-30T15:43:50.689Z,101270.00
2019-05-30T15:46:19.101Z,101258.00
2019-05-30T15:48:47.071Z,101263.00
2019-05-30T15:51:15.063Z,101259.00
2019-05-30T15:53:43.200Z,101263.00
2019-05-30T15:56:11.163Z,101255.00
2019-05-30T15:58:39.072Z,101259.00
2019-05-30T16:01:07.424Z,101251.00
2019-05-30T16:03:36.187Z,101250.00
2019-05-30T16:06:04.079Z,101247.00
2019-05-30T16:08:32.130Z,101252.00
2019-05-30T16:11:00.436Z,101241.00
2019-05-30T16:13:28.332Z,101251.00
2019-05-30T16:15:56.320Z,101246.00
2019-05-30T16:18:25.398Z,101244.00
2019-05-30T16:20:53.467Z,101242.00
2019-05-30T16:23:22.494Z,101238.00
2019-05-30T16:25:50.552Z,101235.00
2019-05-30T16:28:19.554Z,101238.00
2019-05-30T16:30:47.824Z,101244.00
2019-05-30T16:33:17.897Z,101240.00
2019-05-30T16:35:45.972Z,101245.00
2019-05-30T16:38:14.028Z,101235.00
2019-05-30T16:40:41.979Z,101238.00
2019-05-30T16:43:10.109Z,101228.00
2019-05-30T16:45:38.338Z,101227.00
2019-05-30T16:48:06.435Z,101225.00
2019-05-30T16:50:34.587Z,101222.00
2019-05-30T16:53:02.666Z,101221.00
2019-05-30T16:55:30.621Z,101235.00
2019-05-30T16:57:58.615Z,101229.00
2019-05-30T17:00:26.639Z,101228.00
2019-05-30T17:02:54.537Z,101224.00
2019-05-30T17:05:22.594Z,101217.00
2019-05-30T17:07:50.575Z,101222.00
2019-05-30T17:10:26.675Z,101218.00
2019-05-30T17:12:49.489Z,101222.00
2019-05-30T17:15:17.817Z,101228.00
2019-05-30T17:17:45.967Z,101229.00
2019-05-30T17:20:14.456Z,101248.00
2019-05-30T17:22:44.615Z,101239.00
2019-05-30T17:25:14.200Z,101238.00
2019-05-30T17:27:44.228Z,101243.00
2019-05-30T17:30:13.083Z,101245.00
2019-05-30T17:32:41.166Z,101240.00
2019-05-30T17:35:09.557Z,101248.00
2019-05-30T17:37:37.612Z,101246.00
2019-05-30T17:40:06.234Z,101253.00
2019-05-30T17:42:34.245Z,101256.00
2019-05-30T17:45:21.165Z,101247.00
2019-05-30T17:47:59.460Z,101256.00
2019-05-30T17:50:19.811Z,101248.00
2019-05-30T17:52:47.928Z,101251.00
2019-05-30T17:55:16.133Z,101257.00
2019-05-30T17:57:44.645Z,101259.00
2019-05-30T18:00:14.509Z,101259.00
2019-05-30T18:02:42.688Z,101262.00
2019-05-30T18:05:11.987Z,101253.00
2019-05-30T18:07:39.985Z,101256.00
2019-05-30T18:10:08.522Z,101253.00
2019-05-30T18:12:36.510Z,101257.00
2019-05-30T18:15:06.013Z,101250.00
2019-05-30T18:17:34.025Z,101251.00
2019-05-30T18:20:02.041Z,101259.00
2019-05-30T18:22:32.402Z,101257.00
2019-05-30T18:25:00.439Z,101252.00
2019-05-30T18:27:29.962Z,101259.00
2019-05-30T18:29:58.113Z,101255.00
2019-05-30T18:32:26.205Z,101256.00
2019-05-30T18:34:57.216Z,101256.00
2019-05-30T18:37:26.272Z,101258.00
2019-05-30T18:39:54.284Z,101254.00
2019-05-30T18:42:23.061Z,101259.00
2019-05-30T18:44:51.256Z,101261.00
2019-05-30T18:47:19.229Z,101256.00
2019-05-30T18:49:48.035Z,101259.00
2019-05-30T18:52:17.342Z,101254.00
2019-05-30T18:54:45.408Z,101257.00
2019-05-30T18:57:14.569Z,101259.00
2019-05-30T18:59:42.467Z,101265.00
2019-05-30T19:02:10.408Z,101268.00
2019-05-30T19:04:38.381Z,101266.00
2019-05-30T19:07:07.426Z,101269.00
2019-05-30T19:09:35.363Z,101263.00
2019-05-30T19:12:03.348Z,101268.00
2019-05-30T19:14:34.494Z,101269.00
2019-05-30T19:17:02.375Z,101271.00
2019-05-30T19:19:31.711Z,101272.00
2019-05-30T19:21:59.813Z,101269.00
2019-05-30T19:24:28.149Z,101277.00
2019-05-30T19:26:56.126Z,101276.00
2019-05-30T19:29:24.256Z,101278.00
2019-05-30T19:31:52.218Z,101274.00
2019-05-30T19:34:20.202Z,101287.00
2019-05-30T19:36:48.108Z,101285.00
2019-05-30T19:39:16.108Z,101287.00
2019-05-30T19:41:55.703Z,101292.00
2019-05-30T19:44:13.843Z,101286.00
2019-05-30T19:46:41.914Z,101292.00
2019-05-30T19:49:10.024Z,101298.00
2019-05-30T19:51:39.328Z,101298.00
2019-05-30T19:54:07.420Z,101306.00
2019-05-30T19:56:38.748Z,101302.00
2019-05-30T19:59:05.539Z,101313.00
2019-05-30T20:01:33.825Z,101307.00
2019-05-30T20:04:02.230Z,101308.00
2019-05-30T20:06:30.645Z,101309.00
2019-05-30T20:09:41.270Z,101322.00
2019-05-30T20:12:17.213Z,101322.00
2019-05-30T20:15:24.573Z,101324.00
2019-05-30T20:18:30.022Z,101338.00
2019-05-30T20:21:29.839Z,101334.00
2019-05-30T20:24:04.448Z,101329.00
2019-05-30T20:27:01.017Z,101337.00
2019-05-30T20:30:10.695Z,101330.00
2019-05-30T20:33:04.168Z,101341.00
2019-05-30T20:35:49.802Z,101336.00
2019-05-30T20:38:42.884Z,101342.00
2019-05-30T20:41:18.051Z,101332.00
2019-05-30T20:44:12.449Z,101339.00
2019-05-30T20:46:51.199Z,101335.00
2019-05-30T20:49:41.196Z,101334.00
2019-05-30T20:52:29.668Z,101330.00
2019-05-30T20:55:03.580Z,101339.00
2019-05-30T20:57:34.332Z,101350.00
2019-05-30T21:00:02.756Z,101344.00
2019-05-30T21:02:32.750Z,101345.00
2019-05-30T21:05:00.857Z,101343.00
2019-05-30T21:07:28.898Z,101345.00
2019-05-30T21:09:57.810Z,101343.00
2019-05-30T21:12:36.918Z,101352.00
2019-05-30T21:15:00.133Z,101350.00
2019-05-30T21:17:31.354Z,101349.00
2019-05-30T21:20:00.312Z,101350.00
2019-05-30T21:22:28.215Z,101348.00
2019-05-30T21:24:56.143Z,101349.00
2019-05-30T21:27:24.077Z,101349.00
2019-05-30T21:29:52.049Z,101350.00
2019-05-30T21:32:20.011Z,101352.00
2019-05-30T21:34:48.668Z,101347.00
2019-05-30T21:37:16.794Z,101351.00
2019-05-30T21:39:46.136Z,101357.00
2019-05-30T21:42:14.126Z,101356.00
2019-05-30T21:44:42.701Z,101348.00
2019-05-30T21:47:10.745Z,101359.00
2019-05-30T21:49:41.558Z,101359.00
2019-05-30T21:52:09.855Z,101345.00
2019-05-30T21:54:37.776Z,101349.00
2019-05-30T21:57:06.122Z,101352.00
2019-05-30T21:59:34.120Z,101362.00
2019-05-30T22:02:02.297Z,101352.00
2019-05-30T22:04:30.212Z,101358.00
2019-05-30T22:06:58.326Z,101356.00
2019-05-30T22:09:26.304Z,101357.00
2019-05-30T22:11:54.588Z,101357.00
2019-05-30T22:14:22.491Z,101358.00
2019-05-30T22:16:50.443Z,101356.00
2019-05-30T22:19:18.386Z,101357.00
2019-05-30T22:21:46.356Z,101359.00
2019-05-30T22:24:14.270Z,101357.00
2019-05-30T22:26:42.498Z,101359.00
2019-05-30T22:29:10.453Z,101351.00
2019-05-30T22:31:38.365Z,101347.00
2019-05-30T22:34:06.413Z,101352.00
2019-05-30T22:36:34.374Z,101347.00
2019-05-30T22:39:03.789Z,101344.00
2019-05-30T22:41:33.353Z,101345.00
2019-05-30T22:44:01.269Z,101347.00
2019-05-30T22:46:29.230Z,101346.00
2019-05-30T22:49:06.325Z,101348.00
2019-05-30T22:51:34.203Z,101356.00
2019-05-30T22:54:02.138Z,101356.00
2019-05-30T22:56:30.090Z,101367.00
2019-05-30T22:58:58.031Z,101355.00
2019-05-30T23:01:25.928Z,101358.00
2019-05-30T23:03:54.105Z,101357.00
2019-05-30T23:06:22.540Z,101362.00
2019-05-30T23:08:50.565Z,101355.00
2019-05-30T23:11:18.384Z,101355.00
2019-05-30T23:13:46.265Z,101360.00
2019-05-30T23:16:14.178Z,101363.00
2019-05-30T23:18:42.029Z,101358.00
2019-05-30T23:21:09.904Z,101365.00
2019-05-30T23:23:38.887Z,101358.00
2019-05-30T23:26:07.899Z,101352.00
2019-05-30T23:28:36.890Z,101361.00
2019-05-30T23:31:04.849Z,101360.00
2019-05-30T23:33:32.730Z,101364.00
2019-05-30T23:36:00.605Z,101362.00
2019-05-30T23:38:28.503Z,101364.00
2019-05-30T23:40:57.094Z,101356.00
2019-05-30T23:43:25.036Z,101360.00
2019-05-30T23:45:53.316Z,101360.00
2019-05-30T23:48:21.533Z,101348.00
2019-05-30T23:50:49.736Z,101350.00
2019-05-30T23:53:17.692Z,101359.00
2019-05-30T23:55:45.559Z,101350.00
2019-05-30T23:58:13.509Z,101346.00
